sensor_id;sensor_type;location;lat;lon;timestamp;P1;durP1;ratioP1;P2;durP2;ratioP2
54171;SDS011;40076;52.354;4.970;2022-10-23T00:01:31;19.33;;;12.13;;
54171;SDS011;40076;52.354;4.970;2022-10-23T00:04:00;23.73;;;12.07;;
54171;SDS011;40076;52.354;4.970;2022-10-23T00:06:27;23.33;;;11.35;;
54171;SDS011;40076;52.354;4.970;2022-10-23T00:08:55;21.10;;;11.57;;
54171;SDS011;40076;52.354;4.970;2022-10-23T00:11:22;21.02;;;11.02;;
54171;SDS011;40076;52.354;4.970;2022-10-23T00:13:50;19.95;;;10.70;;
54171;SDS011;40076;52.354;4.970;2022-10-23T00:16:17;23.63;;;11.45;;
54171;SDS011;40076;52.354;4.970;2022-10-23T00:18:42;22.73;;;11.98;;
54171;SDS011;40076;52.354;4.970;2022-10-23T00:21:10;22.33;;;10.95;;
54171;SDS011;40076;52.354;4.970;2022-10-23T00:23:36;15.35;;;11.05;;
54171;SDS011;40076;52.354;4.970;2022-10-23T00:26:02;16.08;;;10.07;;
54171;SDS011;40076;52.354;4.970;2022-10-23T00:28:28;18.48;;;11.15;;
54171;SDS011;40076;52.354;4.970;2022-10-23T00:30:54;20.02;;;11.00;;
54171;SDS011;40076;52.354;4.970;2022-10-23T00:33:19;22.25;;;12.65;;
54171;SDS011;40076;52.354;4.970;2022-10-23T00:35:45;17.95;;;11.07;;
54171;SDS011;40076;52.354;4.970;2022-10-23T00:38:10;14.60;;;9.93;;
54171;SDS011;40076;52.354;4.970;2022-10-23T00:40:36;18.02;;;10.20;;
54171;SDS011;40076;52.354;4.970;2022-10-23T00:43:02;21.15;;;11.27;;
54171;SDS011;40076;52.354;4.970;2022-10-23T00:45:29;14.20;;;10.07;;
54171;SDS011;40076;52.354;4.970;2022-10-23T00:47:57;19.17;;;10.63;;
54171;SDS011;40076;52.354;4.970;2022-10-23T00:50:24;19.73;;;10.65;;
54171;SDS011;40076;52.354;4.970;2022-10-23T00:52:52;24.60;;;11.32;;
54171;SDS011;40076;52.354;4.970;2022-10-23T00:55:20;20.20;;;10.38;;
54171;SDS011;40076;52.354;4.970;2022-10-23T00:57:48;22.67;;;12.00;;
54171;SDS011;40076;52.354;4.970;2022-10-23T01:00:16;20.90;;;10.82;;
54171;SDS011;40076;52.354;4.970;2022-10-23T01:02:43;16.00;;;11.15;;
54171;SDS011;40076;52.354;4.970;2022-10-23T01:05:09;21.92;;;11.50;;
54171;SDS011;40076;52.354;4.970;2022-10-23T01:07:41;20.27;;;10.95;;
54171;SDS011;40076;52.354;4.970;2022-10-23T01:10:32;17.23;;;10.60;;
54171;SDS011;40076;52.354;4.970;2022-10-23T01:16:08;19.35;;;11.20;;
54171;SDS011;40076;52.354;4.970;2022-10-23T01:18:48;24.45;;;11.48;;
54171;SDS011;40076;52.354;4.970;2022-10-23T01:29:45;18.45;;;10.52;;
54171;SDS011;40076;52.354;4.970;2022-10-23T01:32:16;23.30;;;11.48;;
54171;SDS011;40076;52.354;4.970;2022-10-23T01:34:55;25.13;;;10.73;;
54171;SDS011;40076;52.354;4.970;2022-10-23T01:37:30;15.63;;;9.73;;
54171;SDS011;40076;52.354;4.970;2022-10-23T01:40:03;21.10;;;10.80;;
54171;SDS011;40076;52.354;4.970;2022-10-23T01:42:38;25.02;;;10.50;;
54171;SDS011;40076;52.354;4.970;2022-10-23T01:45:12;16.30;;;10.55;;
54171;SDS011;40076;52.354;4.970;2022-10-23T01:47:45;18.73;;;10.88;;
54171;SDS011;40076;52.354;4.970;2022-10-23T01:50:13;22.80;;;11.00;;
54171;SDS011;40076;52.354;4.970;2022-10-23T01:52:41;23.60;;;11.13;;
54171;SDS011;40076;52.354;4.970;2022-10-23T01:55:06;20.35;;;11.32;;
54171;SDS011;40076;52.354;4.970;2022-10-23T01:57:34;18.48;;;11.10;;
54171;SDS011;40076;52.354;4.970;2022-10-23T02:00:07;18.75;;;11.07;;
54171;SDS011;40076;52.354;4.970;2022-10-23T02:02:35;19.95;;;9.98;;
54171;SDS011;40076;52.354;4.970;2022-10-23T02:05:05;16.73;;;9.90;;
54171;SDS011;40076;52.354;4.970;2022-10-23T02:07:35;18.48;;;9.90;;
54171;SDS011;40076;52.354;4.970;2022-10-23T02:10:05;16.05;;;9.65;;
54171;SDS011;40076;52.354;4.970;2022-10-23T02:15:01;22.23;;;10.43;;
54171;SDS011;40076;52.354;4.970;2022-10-23T02:17:38;16.13;;;10.45;;
54171;SDS011;40076;52.354;4.970;2022-10-23T02:20:22;20.50;;;9.75;;
54171;SDS011;40076;52.354;4.970;2022-10-23T02:26:35;20.55;;;10.40;;
54171;SDS011;40076;52.354;4.970;2022-10-23T02:28:44;17.13;;;10.43;;
54171;SDS011;40076;52.354;4.970;2022-10-23T02:31:15;16.70;;;10.20;;
54171;SDS011;40076;52.354;4.970;2022-10-23T02:33:43;18.67;;;10.57;;
54171;SDS011;40076;52.354;4.970;2022-10-23T02:36:11;20.98;;;10.05;;
54171;SDS011;40076;52.354;4.970;2022-10-23T02:38:37;17.70;;;9.90;;
54171;SDS011;40076;52.354;4.970;2022-10-23T02:41:09;18.60;;;10.25;;
54171;SDS011;40076;52.354;4.970;2022-10-23T02:43:49;14.35;;;9.63;;
54171;SDS011;40076;52.354;4.970;2022-10-23T02:46:29;20.05;;;9.93;;
54171;SDS011;40076;52.354;4.970;2022-10-23T02:49:18;19.48;;;9.35;;
54171;SDS011;40076;52.354;4.970;2022-10-23T02:54:45;22.23;;;10.25;;
54171;SDS011;40076;52.354;4.970;2022-10-23T02:57:30;23.00;;;9.80;;
54171;SDS011;40076;52.354;4.970;2022-10-23T03:00:05;18.45;;;10.23;;
54171;SDS011;40076;52.354;4.970;2022-10-23T03:05:06;17.55;;;10.13;;
54171;SDS011;40076;52.354;4.970;2022-10-23T03:07:35;17.90;;;10.40;;
54171;SDS011;40076;52.354;4.970;2022-10-23T03:10:02;19.00;;;10.30;;
54171;SDS011;40076;52.354;4.970;2022-10-23T03:12:28;22.40;;;11.18;;
54171;SDS011;40076;52.354;4.970;2022-10-23T03:14:53;16.58;;;9.85;;
54171;SDS011;40076;52.354;4.970;2022-10-23T03:17:19;17.25;;;9.60;;
54171;SDS011;40076;52.354;4.970;2022-10-23T03:19:44;18.90;;;9.93;;
54171;SDS011;40076;52.354;4.970;2022-10-23T03:22:09;22.10;;;9.57;;
54171;SDS011;40076;52.354;4.970;2022-10-23T03:24:34;17.88;;;9.15;;
54171;SDS011;40076;52.354;4.970;2022-10-23T03:27:00;17.85;;;9.90;;
54171;SDS011;40076;52.354;4.970;2022-10-23T03:29:25;19.60;;;9.15;;
54171;SDS011;40076;52.354;4.970;2022-10-23T03:31:53;16.40;;;9.93;;
54171;SDS011;40076;52.354;4.970;2022-10-23T03:34:19;20.38;;;10.35;;
54171;SDS011;40076;52.354;4.970;2022-10-23T03:36:45;16.30;;;10.15;;
54171;SDS011;40076;52.354;4.970;2022-10-23T03:39:10;18.50;;;10.10;;
54171;SDS011;40076;52.354;4.970;2022-10-23T03:41:35;17.13;;;10.30;;
54171;SDS011;40076;52.354;4.970;2022-10-23T03:44:01;16.75;;;9.88;;
54171;SDS011;40076;52.354;4.970;2022-10-23T03:46:28;15.43;;;10.35;;
54171;SDS011;40076;52.354;4.970;2022-10-23T03:48:54;19.77;;;9.25;;
54171;SDS011;40076;52.354;4.970;2022-10-23T03:51:22;19.75;;;10.93;;
54171;SDS011;40076;52.354;4.970;2022-10-23T03:53:47;20.02;;;11.00;;
54171;SDS011;40076;52.354;4.970;2022-10-23T03:56:13;19.65;;;11.20;;
54171;SDS011;40076;52.354;4.970;2022-10-23T03:58:38;19.27;;;11.80;;
54171;SDS011;40076;52.354;4.970;2022-10-23T04:01:03;22.77;;;11.90;;
54171;SDS011;40076;52.354;4.970;2022-10-23T04:03:29;17.83;;;10.77;;
54171;SDS011;40076;52.354;4.970;2022-10-23T04:05:54;28.25;;;12.40;;
54171;SDS011;40076;52.354;4.970;2022-10-23T04:08:19;19.33;;;11.52;;
54171;SDS011;40076;52.354;4.970;2022-10-23T04:10:45;17.80;;;11.52;;
54171;SDS011;40076;52.354;4.970;2022-10-23T04:13:10;15.45;;;10.65;;
54171;SDS011;40076;52.354;4.970;2022-10-23T04:15:35;19.80;;;11.77;;
54171;SDS011;40076;52.354;4.970;2022-10-23T04:18:01;16.00;;;10.90;;
54171;SDS011;40076;52.354;4.970;2022-10-23T04:20:30;15.95;;;9.90;;
54171;SDS011;40076;52.354;4.970;2022-10-23T04:22:55;21.48;;;10.98;;
54171;SDS011;40076;52.354;4.970;2022-10-23T04:25:21;19.45;;;10.57;;
54171;SDS011;40076;52.354;4.970;2022-10-23T04:27:47;18.35;;;10.40;;
54171;SDS011;40076;52.354;4.970;2022-10-23T04:30:12;19.40;;;10.93;;
54171;SDS011;40076;52.354;4.970;2022-10-23T04:32:38;23.20;;;11.63;;
54171;SDS011;40076;52.354;4.970;2022-10-23T04:35:03;14.65;;;10.40;;
54171;SDS011;40076;52.354;4.970;2022-10-23T04:37:29;18.77;;;11.55;;
54171;SDS011;40076;52.354;4.970;2022-10-23T04:39:54;16.73;;;10.48;;
54171;SDS011;40076;52.354;4.970;2022-10-23T04:42:20;19.20;;;11.10;;
54171;SDS011;40076;52.354;4.970;2022-10-23T04:44:45;22.25;;;11.32;;
54171;SDS011;40076;52.354;4.970;2022-10-23T04:47:10;16.73;;;11.05;;
54171;SDS011;40076;52.354;4.970;2022-10-23T04:49:35;17.27;;;10.93;;
54171;SDS011;40076;52.354;4.970;2022-10-23T04:52:01;21.00;;;12.00;;
54171;SDS011;40076;52.354;4.970;2022-10-23T04:54:26;15.32;;;10.85;;
54171;SDS011;40076;52.354;4.970;2022-10-23T04:56:51;22.30;;;11.32;;
54171;SDS011;40076;52.354;4.970;2022-10-23T04:59:17;17.80;;;11.20;;
54171;SDS011;40076;52.354;4.970;2022-10-23T05:01:42;22.40;;;11.48;;
54171;SDS011;40076;52.354;4.970;2022-10-23T05:04:07;16.25;;;11.18;;
54171;SDS011;40076;52.354;4.970;2022-10-23T05:06:33;18.38;;;11.45;;
54171;SDS011;40076;52.354;4.970;2022-10-23T05:08:58;19.00;;;11.40;;
54171;SDS011;40076;52.354;4.970;2022-10-23T05:11:23;16.70;;;11.13;;
54171;SDS011;40076;52.354;4.970;2022-10-23T05:13:49;16.67;;;11.13;;
54171;SDS011;40076;52.354;4.970;2022-10-23T05:19:13;21.92;;;11.93;;
54171;SDS011;40076;52.354;4.970;2022-10-23T05:21:44;25.13;;;11.73;;
54171;SDS011;40076;52.354;4.970;2022-10-23T05:24:12;18.90;;;11.07;;
54171;SDS011;40076;52.354;4.970;2022-10-23T05:26:37;22.23;;;11.13;;
54171;SDS011;40076;52.354;4.970;2022-10-23T05:29:02;18.08;;;11.48;;
54171;SDS011;40076;52.354;4.970;2022-10-23T05:31:28;18.02;;;11.40;;
54171;SDS011;40076;52.354;4.970;2022-10-23T05:33:53;21.00;;;11.73;;
54171;SDS011;40076;52.354;4.970;2022-10-23T05:36:20;21.98;;;11.63;;
54171;SDS011;40076;52.354;4.970;2022-10-23T05:38:47;15.95;;;10.80;;
54171;SDS011;40076;52.354;4.970;2022-10-23T05:41:13;15.88;;;11.45;;
54171;SDS011;40076;52.354;4.970;2022-10-23T05:43:38;18.08;;;12.00;;
54171;SDS011;40076;52.354;4.970;2022-10-23T05:46:04;20.48;;;11.60;;
54171;SDS011;40076;52.354;4.970;2022-10-23T05:48:30;18.13;;;11.98;;
54171;SDS011;40076;52.354;4.970;2022-10-23T05:51:00;20.70;;;11.75;;
54171;SDS011;40076;52.354;4.970;2022-10-23T05:53:27;19.40;;;12.02;;
54171;SDS011;40076;52.354;4.970;2022-10-23T05:55:52;15.40;;;11.32;;
54171;SDS011;40076;52.354;4.970;2022-10-23T05:58:17;19.30;;;11.50;;
54171;SDS011;40076;52.354;4.970;2022-10-23T06:00:43;18.83;;;10.77;;
54171;SDS011;40076;52.354;4.970;2022-10-23T06:03:08;19.13;;;12.15;;
54171;SDS011;40076;52.354;4.970;2022-10-23T06:05:33;16.58;;;10.80;;
54171;SDS011;40076;52.354;4.970;2022-10-23T06:07:59;14.88;;;11.00;;
54171;SDS011;40076;52.354;4.970;2022-10-23T06:10:24;19.23;;;10.80;;
54171;SDS011;40076;52.354;4.970;2022-10-23T06:12:50;22.63;;;11.60;;
54171;SDS011;40076;52.354;4.970;2022-10-23T06:15:15;20.10;;;11.00;;
54171;SDS011;40076;52.354;4.970;2022-10-23T06:17:41;21.30;;;10.07;;
54171;SDS011;40076;52.354;4.970;2022-10-23T06:20:06;20.05;;;11.25;;
54171;SDS011;40076;52.354;4.970;2022-10-23T06:22:32;17.15;;;10.25;;
54171;SDS011;40076;52.354;4.970;2022-10-23T06:24:57;18.83;;;10.95;;
54171;SDS011;40076;52.354;4.970;2022-10-23T06:27:22;17.35;;;10.60;;
54171;SDS011;40076;52.354;4.970;2022-10-23T06:29:48;16.70;;;10.30;;
54171;SDS011;40076;52.354;4.970;2022-10-23T06:32:13;18.63;;;10.07;;
54171;SDS011;40076;52.354;4.970;2022-10-23T06:34:38;17.92;;;10.10;;
54171;SDS011;40076;52.354;4.970;2022-10-23T06:37:04;17.48;;;9.85;;
54171;SDS011;40076;52.354;4.970;2022-10-23T06:39:33;14.88;;;9.40;;
54171;SDS011;40076;52.354;4.970;2022-10-23T06:42:00;16.98;;;9.70;;
54171;SDS011;40076;52.354;4.970;2022-10-23T06:44:25;15.02;;;9.55;;
54171;SDS011;40076;52.354;4.970;2022-10-23T06:46:50;17.17;;;9.43;;
54171;SDS011;40076;52.354;4.970;2022-10-23T06:49:16;17.10;;;9.60;;
54171;SDS011;40076;52.354;4.970;2022-10-23T06:51:41;16.98;;;9.32;;
54171;SDS011;40076;52.354;4.970;2022-10-23T06:54:07;15.35;;;8.90;;
54171;SDS011;40076;52.354;4.970;2022-10-23T06:56:33;17.17;;;8.88;;
54171;SDS011;40076;52.354;4.970;2022-10-23T06:58:59;14.82;;;9.10;;
54171;SDS011;40076;52.354;4.970;2022-10-23T07:01:25;15.15;;;8.48;;
54171;SDS011;40076;52.354;4.970;2022-10-23T07:03:50;15.07;;;9.40;;
54171;SDS011;40076;52.354;4.970;2022-10-23T07:06:15;12.85;;;7.88;;
54171;SDS011;40076;52.354;4.970;2022-10-23T07:08:41;19.05;;;8.60;;
54171;SDS011;40076;52.354;4.970;2022-10-23T07:11:07;17.23;;;8.27;;
54171;SDS011;40076;52.354;4.970;2022-10-23T07:13:34;16.58;;;8.55;;
54171;SDS011;40076;52.354;4.970;2022-10-23T07:16:13;15.15;;;9.25;;
54171;SDS011;40076;52.354;4.970;2022-10-23T07:18:41;19.52;;;9.30;;
54171;SDS011;40076;52.354;4.970;2022-10-23T07:21:06;12.75;;;8.25;;
54171;SDS011;40076;52.354;4.970;2022-10-23T07:23:32;16.48;;;8.55;;
54171;SDS011;40076;52.354;4.970;2022-10-23T07:26:02;13.82;;;8.05;;
54171;SDS011;40076;52.354;4.970;2022-10-23T07:28:29;16.33;;;7.85;;
54171;SDS011;40076;52.354;4.970;2022-10-23T07:30:55;16.42;;;8.90;;
54171;SDS011;40076;52.354;4.970;2022-10-23T07:33:21;15.05;;;8.15;;
54171;SDS011;40076;52.354;4.970;2022-10-23T07:35:47;14.80;;;7.53;;
54171;SDS011;40076;52.354;4.970;2022-10-23T07:38:12;18.30;;;8.38;;
54171;SDS011;40076;52.354;4.970;2022-10-23T07:40:37;14.38;;;7.45;;
54171;SDS011;40076;52.354;4.970;2022-10-23T07:43:03;13.30;;;8.40;;
54171;SDS011;40076;52.354;4.970;2022-10-23T07:45:28;14.50;;;8.88;;
54171;SDS011;40076;52.354;4.970;2022-10-23T07:47:53;17.98;;;8.63;;
54171;SDS011;40076;52.354;4.970;2022-10-23T07:50:19;14.70;;;8.57;;
54171;SDS011;40076;52.354;4.970;2022-10-23T07:52:44;13.90;;;7.70;;
54171;SDS011;40076;52.354;4.970;2022-10-23T07:55:09;15.23;;;7.70;;
54171;SDS011;40076;52.354;4.970;2022-10-23T07:57:36;19.65;;;8.40;;
54171;SDS011;40076;52.354;4.970;2022-10-23T08:00:03;15.50;;;8.88;;
54171;SDS011;40076;52.354;4.970;2022-10-23T08:02:30;16.33;;;8.50;;
54171;SDS011;40076;52.354;4.970;2022-10-23T08:04:55;14.18;;;7.97;;
54171;SDS011;40076;52.354;4.970;2022-10-23T08:07:21;15.77;;;8.23;;
54171;SDS011;40076;52.354;4.970;2022-10-23T08:09:46;19.17;;;7.78;;
54171;SDS011;40076;52.354;4.970;2022-10-23T08:12:11;15.80;;;9.07;;
54171;SDS011;40076;52.354;4.970;2022-10-23T08:14:36;16.00;;;8.68;;
54171;SDS011;40076;52.354;4.970;2022-10-23T08:17:02;18.25;;;9.85;;
54171;SDS011;40076;52.354;4.970;2022-10-23T08:19:28;17.77;;;9.07;;
54171;SDS011;40076;52.354;4.970;2022-10-23T08:21:54;16.38;;;8.38;;
54171;SDS011;40076;52.354;4.970;2022-10-23T08:24:21;15.73;;;8.55;;
54171;SDS011;40076;52.354;4.970;2022-10-23T08:26:47;15.43;;;8.75;;
54171;SDS011;40076;52.354;4.970;2022-10-23T08:29:14;13.32;;;8.70;;
54171;SDS011;40076;52.354;4.970;2022-10-23T08:31:39;16.10;;;9.10;;
54171;SDS011;40076;52.354;4.970;2022-10-23T08:34:05;16.45;;;8.77;;
54171;SDS011;40076;52.354;4.970;2022-10-23T08:36:30;13.40;;;8.52;;
54171;SDS011;40076;52.354;4.970;2022-10-23T08:38:57;15.15;;;8.77;;
54171;SDS011;40076;52.354;4.970;2022-10-23T08:41:36;12.57;;;8.38;;
54171;SDS011;40076;52.354;4.970;2022-10-23T08:51:57;15.13;;;9.57;;
54171;SDS011;40076;52.354;4.970;2022-10-23T08:57:08;15.43;;;8.52;;
54171;SDS011;40076;52.354;4.970;2022-10-23T08:59:39;13.55;;;8.93;;
54171;SDS011;40076;52.354;4.970;2022-10-23T09:04:56;15.85;;;8.07;;
54171;SDS011;40076;52.354;4.970;2022-10-23T09:08:06;14.40;;;7.85;;
54171;SDS011;40076;52.354;4.970;2022-10-23T09:19:00;14.43;;;8.40;;
54171;SDS011;40076;52.354;4.970;2022-10-23T09:21:29;13.38;;;7.75;;
54171;SDS011;40076;52.354;4.970;2022-10-23T09:23:54;14.55;;;7.95;;
54171;SDS011;40076;52.354;4.970;2022-10-23T09:26:20;15.48;;;7.78;;
54171;SDS011;40076;52.354;4.970;2022-10-23T09:28:49;14.63;;;8.13;;
54171;SDS011;40076;52.354;4.970;2022-10-23T09:31:20;10.20;;;7.25;;
54171;SDS011;40076;52.354;4.970;2022-10-23T09:33:59;13.75;;;7.60;;
54171;SDS011;40076;52.354;4.970;2022-10-23T09:36:26;11.73;;;7.32;;
54171;SDS011;40076;52.354;4.970;2022-10-23T09:38:53;11.98;;;7.70;;
54171;SDS011;40076;52.354;4.970;2022-10-23T09:41:27;14.57;;;7.25;;
54171;SDS011;40076;52.354;4.970;2022-10-23T09:46:44;14.25;;;7.75;;
54171;SDS011;40076;52.354;4.970;2022-10-23T09:49:16;13.27;;;7.35;;
54171;SDS011;40076;52.354;4.970;2022-10-23T09:51:51;10.90;;;7.50;;
54171;SDS011;40076;52.354;4.970;2022-10-23T09:54:20;12.85;;;7.28;;
54171;SDS011;40076;52.354;4.970;2022-10-23T09:56:48;14.52;;;7.28;;
54171;SDS011;40076;52.354;4.970;2022-10-23T10:01:46;12.97;;;6.67;;
54171;SDS011;40076;52.354;4.970;2022-10-23T10:04:16;12.25;;;6.72;;
54171;SDS011;40076;52.354;4.970;2022-10-23T10:06:42;15.00;;;7.38;;
54171;SDS011;40076;52.354;4.970;2022-10-23T10:09:11;15.70;;;6.15;;
54171;SDS011;40076;52.354;4.970;2022-10-23T10:11:46;10.35;;;6.30;;
54171;SDS011;40076;52.354;4.970;2022-10-23T10:14:27;13.10;;;6.50;;
54171;SDS011;40076;52.354;4.970;2022-10-23T10:17:05;12.73;;;6.15;;
54171;SDS011;40076;52.354;4.970;2022-10-23T10:19:55;16.90;;;6.68;;
54171;SDS011;40076;52.354;4.970;2022-10-23T10:22:34;8.60;;;5.83;;
54171;SDS011;40076;52.354;4.970;2022-10-23T10:27:59;10.27;;;6.18;;
54171;SDS011;40076;52.354;4.970;2022-10-23T10:30:28;11.07;;;6.20;;
54171;SDS011;40076;52.354;4.970;2022-10-23T10:33:08;9.90;;;5.65;;
54171;SDS011;40076;52.354;4.970;2022-10-23T10:40:50;9.73;;;5.57;;
54171;SDS011;40076;52.354;4.970;2022-10-23T10:43:40;10.18;;;5.55;;
54171;SDS011;40076;52.354;4.970;2022-10-23T10:46:38;9.82;;;5.15;;
54171;SDS011;40076;52.354;4.970;2022-10-23T10:55:02;11.95;;;4.88;;
54171;SDS011;40076;52.354;4.970;2022-10-23T10:57:46;10.27;;;4.30;;
54171;SDS011;40076;52.354;4.970;2022-10-23T11:00:16;11.48;;;5.80;;
54171;SDS011;40076;52.354;4.970;2022-10-23T11:02:47;8.85;;;4.50;;
54171;SDS011;40076;52.354;4.970;2022-10-23T11:10:28;8.90;;;4.38;;
54171;SDS011;40076;52.354;4.970;2022-10-23T11:12:54;11.75;;;4.18;;
54171;SDS011;40076;52.354;4.970;2022-10-23T11:15:21;5.60;;;3.78;;
54171;SDS011;40076;52.354;4.970;2022-10-23T11:18:00;10.75;;;4.10;;
54171;SDS011;40076;52.354;4.970;2022-10-23T11:36:57;11.02;;;4.07;;
54171;SDS011;40076;52.354;4.970;2022-10-23T11:39:32;9.63;;;4.50;;
54171;SDS011;40076;52.354;4.970;2022-10-23T11:42:10;9.20;;;4.00;;
54171;SDS011;40076;52.354;4.970;2022-10-23T11:44:42;7.72;;;4.32;;
54171;SDS011;40076;52.354;4.970;2022-10-23T11:52:33;10.50;;;3.92;;
54171;SDS011;40076;52.354;4.970;2022-10-23T11:55:00;6.03;;;3.42;;
54171;SDS011;40076;52.354;4.970;2022-10-23T11:57:28;7.45;;;3.83;;
54171;SDS011;40076;52.354;4.970;2022-10-23T11:59:54;9.82;;;3.42;;
54171;SDS011;40076;52.354;4.970;2022-10-23T12:02:34;6.18;;;3.50;;
54171;SDS011;40076;52.354;4.970;2022-10-23T12:07:52;9.52;;;3.30;;
54171;SDS011;40076;52.354;4.970;2022-10-23T12:10:25;9.57;;;3.08;;
54171;SDS011;40076;52.354;4.970;2022-10-23T12:16:08;8.55;;;3.30;;
54171;SDS011;40076;52.354;4.970;2022-10-23T12:18:43;8.52;;;3.10;;
54171;SDS011;40076;52.354;4.970;2022-10-23T12:21:18;6.97;;;3.25;;
54171;SDS011;40076;52.354;4.970;2022-10-23T12:34:28;10.43;;;3.33;;
54171;SDS011;40076;52.354;4.970;2022-10-23T12:39:31;7.40;;;3.58;;
54171;SDS011;40076;52.354;4.970;2022-10-23T12:42:00;6.95;;;2.85;;
54171;SDS011;40076;52.354;4.970;2022-10-23T12:44:26;5.78;;;2.72;;
54171;SDS011;40076;52.354;4.970;2022-10-23T12:47:00;8.40;;;2.83;;
54171;SDS011;40076;52.354;4.970;2022-10-23T12:49:28;9.05;;;2.97;;
54171;SDS011;40076;52.354;4.970;2022-10-23T12:51:58;9.38;;;2.90;;
54171;SDS011;40076;52.354;4.970;2022-10-23T12:54:25;5.63;;;2.40;;
54171;SDS011;40076;52.354;4.970;2022-10-23T12:56:52;9.38;;;2.60;;
54171;SDS011;40076;52.354;4.970;2022-10-23T12:59:25;7.53;;;2.70;;
54171;SDS011;40076;52.354;4.970;2022-10-23T13:01:52;6.88;;;2.85;;
54171;SDS011;40076;52.354;4.970;2022-10-23T13:06:50;7.63;;;2.80;;
54171;SDS011;40076;52.354;4.970;2022-10-23T13:12:03;11.10;;;2.90;;
54171;SDS011;40076;52.354;4.970;2022-10-23T13:14:32;5.32;;;2.70;;
54171;SDS011;40076;52.354;4.970;2022-10-23T13:17:04;6.85;;;2.60;;
54171;SDS011;40076;52.354;4.970;2022-10-23T13:19:34;6.13;;;2.50;;
54171;SDS011;40076;52.354;4.970;2022-10-23T13:22:00;6.28;;;2.35;;
54171;SDS011;40076;52.354;4.970;2022-10-23T13:24:29;5.65;;;2.60;;
54171;SDS011;40076;52.354;4.970;2022-10-23T13:26:55;6.65;;;2.47;;
54171;SDS011;40076;52.354;4.970;2022-10-23T13:31:54;9.68;;;2.70;;
54171;SDS011;40076;52.354;4.970;2022-10-23T13:36:54;6.10;;;2.55;;
54171;SDS011;40076;52.354;4.970;2022-10-23T13:39:29;10.40;;;2.85;;
54171;SDS011;40076;52.354;4.970;2022-10-23T13:42:00;6.47;;;2.60;;
54171;SDS011;40076;52.354;4.970;2022-10-23T13:44:35;5.65;;;2.70;;
54171;SDS011;40076;52.354;4.970;2022-10-23T13:47:02;7.32;;;2.63;;
54171;SDS011;40076;52.354;4.970;2022-10-23T13:49:27;6.45;;;2.83;;
54171;SDS011;40076;52.354;4.970;2022-10-23T13:51:54;7.43;;;3.10;;
54171;SDS011;40076;52.354;4.970;2022-10-23T13:54:22;9.45;;;3.00;;
54171;SDS011;40076;52.354;4.970;2022-10-23T13:56:52;7.43;;;2.53;;
54171;SDS011;40076;52.354;4.970;2022-10-23T13:59:19;9.52;;;3.22;;
54171;SDS011;40076;52.354;4.970;2022-10-23T14:01:44;7.32;;;2.80;;
54171;SDS011;40076;52.354;4.970;2022-10-23T14:04:11;6.28;;;2.47;;
54171;SDS011;40076;52.354;4.970;2022-10-23T14:06:38;7.65;;;2.70;;
54171;SDS011;40076;52.354;4.970;2022-10-23T14:09:04;5.65;;;2.80;;
54171;SDS011;40076;52.354;4.970;2022-10-23T14:11:31;6.78;;;2.80;;
54171;SDS011;40076;52.354;4.970;2022-10-23T14:13:57;5.97;;;3.10;;
54171;SDS011;40076;52.354;4.970;2022-10-23T14:16:24;10.45;;;3.28;;
54171;SDS011;40076;52.354;4.970;2022-10-23T14:18:50;7.80;;;2.92;;
54171;SDS011;40076;52.354;4.970;2022-10-23T14:21:16;10.10;;;3.30;;
54171;SDS011;40076;52.354;4.970;2022-10-23T14:23:44;6.88;;;2.88;;
54171;SDS011;40076;52.354;4.970;2022-10-23T14:26:14;8.75;;;3.20;;
54171;SDS011;40076;52.354;4.970;2022-10-23T14:28:41;9.05;;;3.70;;
54171;SDS011;40076;52.354;4.970;2022-10-23T14:31:08;11.32;;;3.10;;
54171;SDS011;40076;52.354;4.970;2022-10-23T14:33:35;6.32;;;2.92;;
54171;SDS011;40076;52.354;4.970;2022-10-23T14:36:00;10.23;;;2.55;;
54171;SDS011;40076;52.354;4.970;2022-10-23T14:38:26;8.70;;;3.15;;
54171;SDS011;40076;52.354;4.970;2022-10-23T14:40:52;7.40;;;3.25;;
54171;SDS011;40076;52.354;4.970;2022-10-23T14:43:17;8.07;;;3.40;;
54171;SDS011;40076;52.354;4.970;2022-10-23T14:45:42;9.23;;;3.70;;
54171;SDS011;40076;52.354;4.970;2022-10-23T14:48:08;12.70;;;4.53;;
54171;SDS011;40076;52.354;4.970;2022-10-23T14:50:34;8.80;;;3.70;;
54171;SDS011;40076;52.354;4.970;2022-10-23T14:53:01;8.40;;;3.35;;
54171;SDS011;40076;52.354;4.970;2022-10-23T14:55:26;10.27;;;3.30;;
54171;SDS011;40076;52.354;4.970;2022-10-23T14:57:55;8.43;;;3.38;;
54171;SDS011;40076;52.354;4.970;2022-10-23T15:00:21;12.48;;;4.10;;
54171;SDS011;40076;52.354;4.970;2022-10-23T15:02:47;9.23;;;3.40;;
54171;SDS011;40076;52.354;4.970;2022-10-23T15:05:13;8.50;;;3.67;;
54171;SDS011;40076;52.354;4.970;2022-10-23T15:07:38;9.05;;;4.38;;
54171;SDS011;40076;52.354;4.970;2022-10-23T15:10:04;9.13;;;3.42;;
54171;SDS011;40076;52.354;4.970;2022-10-23T15:12:30;10.95;;;3.92;;
54171;SDS011;40076;52.354;4.970;2022-10-23T15:14:55;8.07;;;3.35;;
54171;SDS011;40076;52.354;4.970;2022-10-23T15:17:21;7.82;;;3.47;;
54171;SDS011;40076;52.354;4.970;2022-10-23T15:19:46;8.52;;;3.40;;
54171;SDS011;40076;52.354;4.970;2022-10-23T15:22:11;7.13;;;3.22;;
54171;SDS011;40076;52.354;4.970;2022-10-23T15:24:37;12.20;;;3.60;;
54171;SDS011;40076;52.354;4.970;2022-10-23T15:27:02;6.22;;;3.13;;
54171;SDS011;40076;52.354;4.970;2022-10-23T15:29:27;6.82;;;3.00;;
54171;SDS011;40076;52.354;4.970;2022-10-23T15:31:54;6.38;;;3.60;;
54171;SDS011;40076;52.354;4.970;2022-10-23T15:34:26;8.18;;;3.55;;
54171;SDS011;40076;52.354;4.970;2022-10-23T15:36:53;9.65;;;3.05;;
54171;SDS011;40076;52.354;4.970;2022-10-23T15:39:21;7.43;;;3.33;;
54171;SDS011;40076;52.354;4.970;2022-10-23T15:41:52;9.10;;;3.58;;
54171;SDS011;40076;52.354;4.970;2022-10-23T15:44:20;8.30;;;3.03;;
54171;SDS011;40076;52.354;4.970;2022-10-23T15:46:46;10.05;;;3.40;;
54171;SDS011;40076;52.354;4.970;2022-10-23T15:49:12;11.48;;;4.00;;
54171;SDS011;40076;52.354;4.970;2022-10-23T15:51:38;7.30;;;3.45;;
54171;SDS011;40076;52.354;4.970;2022-10-23T15:54:07;7.85;;;3.30;;
54171;SDS011;40076;52.354;4.970;2022-10-23T15:56:34;8.18;;;3.58;;
54171;SDS011;40076;52.354;4.970;2022-10-23T15:59:00;10.55;;;3.97;;
54171;SDS011;40076;52.354;4.970;2022-10-23T16:01:26;9.50;;;3.50;;
54171;SDS011;40076;52.354;4.970;2022-10-23T16:03:51;11.25;;;3.50;;
54171;SDS011;40076;52.354;4.970;2022-10-23T16:06:17;7.72;;;3.75;;
54171;SDS011;40076;52.354;4.970;2022-10-23T16:08:43;7.55;;;3.30;;
54171;SDS011;40076;52.354;4.970;2022-10-23T16:11:13;6.95;;;3.17;;
54171;SDS011;40076;52.354;4.970;2022-10-23T16:13:44;6.53;;;3.15;;
54171;SDS011;40076;52.354;4.970;2022-10-23T16:16:10;8.93;;;3.70;;
54171;SDS011;40076;52.354;4.970;2022-10-23T16:18:36;9.57;;;3.47;;
54171;SDS011;40076;52.354;4.970;2022-10-23T16:21:02;9.30;;;3.72;;
54171;SDS011;40076;52.354;4.970;2022-10-23T16:23:28;8.68;;;3.45;;
54171;SDS011;40076;52.354;4.970;2022-10-23T16:25:53;7.28;;;3.15;;
54171;SDS011;40076;52.354;4.970;2022-10-23T16:28:19;8.88;;;3.28;;
54171;SDS011;40076;52.354;4.970;2022-10-23T16:30:44;4.47;;;3.20;;
54171;SDS011;40076;52.354;4.970;2022-10-23T16:33:10;5.88;;;3.60;;
54171;SDS011;40076;52.354;4.970;2022-10-23T16:35:36;11.13;;;3.22;;
54171;SDS011;40076;52.354;4.970;2022-10-23T16:38:02;5.60;;;3.13;;
54171;SDS011;40076;52.354;4.970;2022-10-23T16:40:28;9.52;;;4.00;;
54171;SDS011;40076;52.354;4.970;2022-10-23T16:42:55;6.75;;;3.00;;